Time;durP1;ratioP1;P1;durP2;ratioP2;P2;SDS_P1;SDS_P2;PMS_P1;PMS_P2;Temp;Humidity;BMP_temperature;BMP_pressure;BME280_temperature;BME280_humidity;BME280_pressure;Samples;Min_cycle;Max_cycle;Signal;HPM_P1;HPM_P2
2021/08/09 00:00:14;;;;;;;2.30;1.08;;;15.50;86.40;;;;;;2056630;28;20552;-96
2021/08/09 00:01:15;;;;;;;3.53;1.23;;;15.50;86.40;;;;;;2056831;28;20039;-96
2021/08/09 00:02:17;;;;;;;3.90;1.40;;;15.50;86.40;;;;;;2041500;29;20494;-96
2021/08/09 00:03:17;;;;;;;3.35;1.52;;;15.50;86.40;;;;;;2050643;28;20091;-96
2021/08/09 00:04:18;;;;;;;4.40;1.00;;;15.50;86.30;;;;;;2058848;28;20428;-96
2021/08/09 00:05:19;;;;;;;3.10;1.23;;;15.50;86.30;;;;;;2041306;29;20066;-96
2021/08/09 00:06:23;;;;;;;2.33;1.15;;;15.50;86.40;;;;;;2050434;28;20062;-96
2021/08/09 00:07:24;;;;;;;3.45;1.17;;;15.50;86.40;;;;;;2063394;28;20459;-96
2021/08/09 00:08:24;;;;;;;4.20;1.20;;;15.50;86.30;;;;;;2050242;28;20043;-96
2021/08/09 00:09:25;;;;;;;3.30;1.30;;;15.50;86.30;;;;;;2055841;28;20051;-95
2021/08/09 00:10:27;;;;;;;2.85;1.15;;;15.50;86.20;;;;;;2040429;29;20123;-96
2021/08/09 00:11:29;;;;;;;4.75;1.10;;;15.50;86.20;;;;;;2042689;28;20043;-96
2021/08/09 00:12:30;;;;;;;4.80;1.30;;;15.50;86.20;;;;;;2056015;28;20042;-96
2021/08/09 00:13:30;;;;;;;3.97;1.13;;;15.50;86.10;;;;;;2050538;28;20050;-96
2021/08/09 00:14:31;;;;;;;2.97;1.02;;;15.50;86.10;;;;;;2057214;28;20074;-96
2021/08/09 00:15:32;;;;;;;2.97;1.20;;;15.50;86.10;;;;;;2059910;28;20042;-95
2021/08/09 00:16:33;;;;;;;2.13;0.90;;;15.50;86.10;;;;;;2066084;28;20494;-96
2021/08/09 00:17:33;;;;;;;3.00;1.30;;;15.50;86.20;;;;;;2056965;28;20125;-94
2021/08/09 00:18:34;;;;;;;4.47;1.15;;;15.50;86.10;;;;;;2057956;28;20038;-95
2021/08/09 00:19:35;;;;;;;2.90;1.20;;;15.40;86.00;;;;;;2051742;28;20050;-96
2021/08/09 00:20:36;;;;;;;2.47;1.00;;;15.50;86.10;;;;;;2041953;29;20032;-96
2021/08/09 00:21:36;;;;;;;3.20;1.10;;;15.50;86.10;;;;;;2050036;28;20492;-95
2021/08/09 00:22:37;;;;;;;2.85;1.00;;;15.50;86.10;;;;;;2065359;28;20065;-95
2021/08/09 00:23:38;;;;;;;3.08;1.10;;;15.40;86.10;;;;;;2050066;28;20035;-95
2021/08/09 00:24:38;;;;;;;3.53;1.23;;;15.50;86.10;;;;;;2049117;28;20040;-95
2021/08/09 00:25:39;;;;;;;3.97;1.10;;;15.40;86.10;;;;;;2053409;28;20074;-95
2021/08/09 00:26:40;;;;;;;4.03;1.30;;;15.40;86.70;;;;;;2051327;28;20035;-95
2021/08/09 00:27:41;;;;;;;5.20;1.40;;;15.50;86.10;;;;;;2041739;29;20044;-96
2021/08/09 00:28:42;;;;;;;3.03;1.27;;;15.40;86.00;;;;;;2049029;28;20126;-95
2021/08/09 00:29:43;;;;;;;3.65;1.40;;;15.40;86.00;;;;;;2049709;28;20401;-96
2021/08/09 00:30:43;;;;;;;4.30;1.25;;;15.40;86.00;;;;;;2033926;29;20032;-95
2021/08/09 00:31:44;;;;;;;3.30;1.25;;;15.40;86.00;;;;;;2039409;29;20438;-95
2021/08/09 00:32:45;;;;;;;4.78;1.75;;;15.40;86.00;;;;;;2041006;28;20450;-95
2021/08/09 00:33:46;;;;;;;3.65;1.38;;;15.40;86.00;;;;;;2048695;28;20035;-95
2021/08/09 00:34:46;;;;;;;5.60;1.48;;;15.40;86.00;;;;;;2041053;29;20066;-96
2021/08/09 00:35:47;;;;;;;2.80;1.30;;;15.40;86.10;;;;;;2064634;28;20062;-95
2021/08/09 00:36:48;;;;;;;2.83;0.98;;;15.40;86.10;;;;;;2055947;28;20525;-96
2021/08/09 00:37:48;;;;;;;3.15;1.33;;;15.40;86.10;;;;;;2041946;29;20035;-95
2021/08/09 00:38:49;;;;;;;3.58;1.20;;;15.40;86.10;;;;;;2039587;29;20051;-96
2021/08/09 00:39:50;;;;;;;3.22;1.23;;;15.40;86.10;;;;;;2048846;28;20046;-94
2021/08/09 00:40:51;;;;;;;3.30;1.50;;;15.40;86.10;;;;;;2061757;28;20406;-96
2021/08/09 00:41:52;;;;;;;2.70;1.23;;;15.30;86.10;;;;;;2049919;28;20047;-95
2021/08/09 00:42:52;;;;;;;3.22;1.08;;;15.30;86.20;;;;;;2050127;28;20422;-96
2021/08/09 00:43:53;;;;;;;2.88;1.42;;;15.40;86.20;;;;;;2043495;29;20040;-96
2021/08/09 00:44:54;;;;;;;4.00;1.30;;;15.30;86.20;;;;;;2042204;28;20063;-96
2021/08/09 00:45:56;;;;;;;3.67;1.23;;;15.40;86.30;;;;;;2049092;28;20047;-95
2021/08/09 00:46:57;;;;;;;3.08;1.30;;;15.40;86.30;;;;;;2058079;28;20102;-96
2021/08/09 00:47:57;;;;;;;2.45;1.20;;;15.30;86.20;;;;;;2049822;28;20099;-96
2021/08/09 00:48:58;;;;;;;2.75;1.20;;;15.30;86.20;;;;;;2033227;29;20048;-96
2021/08/09 00:49:59;;;;;;;4.07;1.10;;;15.30;86.20;;;;;;2042207;29;20127;-96
2021/08/09 00:51:00;;;;;;;3.08;1.17;;;15.30;86.20;;;;;;2040671;28;20565;-96
2021/08/09 00:52:00;;;;;;;2.75;1.20;;;15.30;86.20;;;;;;2054474;28;20042;-96
2021/08/09 00:53:01;;;;;;;2.92;1.02;;;15.30;86.20;;;;;;2047884;28;20118;-96
2021/08/09 00:54:03;;;;;;;3.58;1.20;;;15.30;86.30;;;;;;2043785;28;20047;-96
2021/08/09 00:55:04;;;;;;;3.50;1.25;;;15.30;86.30;;;;;;2049116;28;20043;-96
2021/08/09 00:56:05;;;;;;;2.47;0.93;;;15.30;86.40;;;;;;2046563;28;20405;-95
2021/08/09 00:57:06;;;;;;;3.08;1.20;;;15.30;86.40;;;;;;2049710;28;20027;-95
2021/08/09 00:58:07;;;;;;;2.90;1.30;;;15.30;86.40;;;;;;2057649;28;20042;-95
2021/08/09 00:59:08;;;;;;;4.50;1.50;;;15.20;86.40;;;;;;2049592;29;20030;-95
2021/08/09 01:00:09;;;;;;;5.03;1.20;;;15.20;86.40;;;;;;2056652;28;20820;-96
2021/08/09 01:01:10;;;;;;;4.25;1.45;;;15.20;86.40;;;;;;2057136;28;20058;-96
2021/08/09 01:02:10;;;;;;;4.88;1.40;;;15.20;86.40;;;;;;2057180;28;20409;-96
2021/08/09 01:03:11;;;;;;;2.67;1.20;;;15.20;86.40;;;;;;2041682;29;20160;-96
2021/08/09 01:04:12;;;;;;;3.55;1.15;;;15.20;86.40;;;;;;2057270;28;20074;-96
2021/08/09 01:05:13;;;;;;;4.05;1.42;;;15.20;86.40;;;;;;2049635;28;20034;-96
2021/08/09 01:06:15;;;;;;;3.83;1.30;;;15.20;86.40;;;;;;2070158;28;20486;-96
2021/08/09 01:07:15;;;;;;;4.07;1.13;;;15.20;86.40;;;;;;2065665;28;20595;-95
2021/08/09 01:08:41;;;;;;;2.58;1.15;;;15.20;86.40;;;;;;2061991;28;20111;-96
2021/08/09 01:10:28;;;;;;;3.17;1.35;;;15.20;86.40;;;;;;2069006;28;20033;-95
2021/08/09 01:11:37;;;;;;;2.60;1.13;;;15.20;86.30;;;;;;2021030;29;20124;-95
2021/08/09 01:13:08;;;;;;;3.70;1.20;;;15.20;86.40;;;;;;2019374;29;20056;-95
2021/08/09 01:14:12;;;;;;;2.95;1.00;;;15.20;86.40;;;;;;2040170;28;20060;-96
2021/08/09 01:15:28;;;;;;;3.70;1.13;;;15.10;86.40;;;;;;2067844;28;20038;-94
2021/08/09 01:16:33;;;;;;;2.47;0.98;;;15.20;86.40;;;;;;2066762;28;20030;-95
2021/08/09 01:17:39;;;;;;;2.92;1.20;;;15.10;86.40;;;;;;2066783;28;20030;-96
2021/08/09 01:18:41;;;;;;;2.47;1.05;;;15.20;86.50;;;;;;2050625;28;20457;-95
2021/08/09 01:20:35;;;;;;;3.33;1.20;;;15.10;86.40;;;;;;2055420;28;20042;-95
2021/08/09 01:21:37;;;;;;;3.28;1.00;;;15.10;86.40;;;;;;2062562;28;20453;-96
2021/08/09 01:22:56;;;;;;;4.45;1.35;;;15.10;87.10;;;;;;2049894;28;20044;-95
2021/08/09 01:24:26;;;;;;;3.60;1.15;;;15.10;86.50;;;;;;2064905;28;20520;-96
2021/08/09 01:25:38;;;;;;;2.67;1.13;;;15.00;86.40;;;;;;2061240;28;20070;-96
2021/08/09 01:26:55;;;;;;;3.65;1.17;;;15.10;87.10;;;;;;2057528;28;20037;-96
2021/08/09 01:27:58;;;;;;;5.03;1.30;;;15.10;86.50;;;;;;2064281;28;20052;-95
2021/08/09 01:28:59;;;;;;;2.70;1.30;;;15.00;86.50;;;;;;2056776;28;20035;-96
2021/08/09 01:30:03;;;;;;;4.72;1.38;;;15.00;86.50;;;;;;2065254;28;20042;-96
2021/08/09 01:31:06;;;;;;;3.35;1.30;;;15.10;86.60;;;;;;2065695;28;20780;-96
2021/08/09 01:32:07;;;;;;;2.63;1.08;;;15.00;86.60;;;;;;2058587;28;20086;-96
2021/08/09 01:33:11;;;;;;;3.63;1.10;;;15.00;86.60;;;;;;2057448;28;20035;-96
2021/08/09 01:34:13;;;;;;;3.30;0.98;;;15.00;86.60;;;;;;2065761;28;20034;-96
2021/08/09 01:35:16;;;;;;;2.80;1.10;;;15.00;86.70;;;;;;2055670;28;20119;-96
2021/08/09 01:36:18;;;;;;;4.22;1.38;;;15.00;86.70;;;;;;2064043;28;20046;-96
2021/08/09 01:37:20;;;;;;;3.63;1.48;;;15.00;86.70;;;;;;2057378;28;20049;-96
2021/08/09 01:38:24;;;;;;;3.72;1.30;;;15.00;86.70;;;;;;2058272;28;20094;-95
2021/08/09 01:39:25;;;;;;;3.55;1.38;;;15.00;86.80;;;;;;2073730;28;20084;-96
2021/08/09 01:40:28;;;;;;;3.03;1.20;;;15.00;86.80;;;;;;2060556;28;20109;-96
2021/08/09 01:41:29;;;;;;;4.22;1.30;;;15.00;86.90;;;;;;2064078;28;20046;-96
2021/08/09 01:42:30;;;;;;;4.15;1.27;;;15.00;86.80;;;;;;2049750;28;20035;-96
2021/08/09 01:43:33;;;;;;;1.98;1.17;;;15.00;86.90;;;;;;2041598;29;20482;-95
2021/08/09 01:44:34;;;;;;;2.47;1.13;;;15.00;86.90;;;;;;2049251;28;20039;-96
2021/08/09 01:45:36;;;;;;;6.88;1.60;;;15.00;86.90;;;;;;2056901;28;20089;-96
2021/08/09 01:46:37;;;;;;;5.63;1.23;;;15.00;86.90;;;;;;2054203;28;20102;-95
2021/08/09 01:47:38;;;;;;;3.95;1.30;;;15.00;86.90;;;;;;2047422;28;20448;-96
2021/08/09 01:48:43;;;;;;;5.07;1.30;;;15.00;86.90;;;;;;2050009;28;20034;-95
2021/08/09 01:49:44;;;;;;;5.50;1.40;;;15.00;86.90;;;;;;2057262;28;20509;-95
2021/08/09 01:50:46;;;;;;;3.38;1.63;;;15.00;86.90;;;;;;2048027;28;20469;-96
2021/08/09 01:51:48;;;;;;;4.65;1.40;;;15.00;86.90;;;;;;2058629;28;20141;-96
2021/08/09 01:52:49;;;;;;;4.03;1.30;;;14.90;86.90;;;;;;2049813;28;20055;-95
2021/08/09 01:53:51;;;;;;;2.63;1.20;;;14.90;86.90;;;;;;2040663;28;20080;-96
2021/08/09 01:54:52;;;;;;;3.03;1.23;;;15.00;87.00;;;;;;2049377;28;20039;-96
2021/08/09 01:55:53;;;;;;;4.32;1.38;;;14.90;86.90;;;;;;2047897;28;20047;-95
2021/08/09 01:56:55;;;;;;;3.65;1.40;;;14.90;87.00;;;;;;2056993;28;20416;-95
2021/08/09 01:57:55;;;;;;;4.15;1.40;;;14.90;87.00;;;;;;2041449;28;20040;-96
2021/08/09 01:58:56;;;;;;;3.58;0.93;;;14.90;87.00;;;;;;2057237;28;20054;-96
2021/08/09 01:59:57;;;;;;;2.80;1.30;;;14.90;87.10;;;;;;2057047;28;20073;-96
2021/08/09 02:00:57;;;;;;;2.00;1.10;;;14.90;87.00;;;;;;2046217;28;20046;-96
2021/08/09 02:01:58;;;;;;;4.32;1.35;;;14.90;87.00;;;;;;2053978;28;20201;-96
2021/08/09 02:02:59;;;;;;;3.67;1.50;;;14.90;87.10;;;;;;2030939;29;20047;-96
2021/08/09 02:04:00;;;;;;;3.30;1.40;;;14.90;87.10;;;;;;2056593;28;20054;-96
2021/08/09 02:05:11;;;;;;;3.00;1.33;;;14.90;87.10;;;;;;2068783;28;20023;-95
2021/08/09 02:06:12;;;;;;;4.35;1.40;;;14.90;87.10;;;;;;2074614;28;20026;-95
2021/08/09 02:07:12;;;;;;;3.90;1.50;;;14.90;87.10;;;;;;2075580;28;20037;-94
2021/08/09 02:08:15;;;;;;;3.00;1.30;;;14.90;87.10;;;;;;2067033;28;20074;-93
2021/08/09 02:09:16;;;;;;;2.78;1.02;;;14.90;87.10;;;;;;2070713;28;20015;-95
2021/08/09 02:10:20;;;;;;;3.25;1.38;;;14.90;87.20;;;;;;2066960;28;20030;-96
2021/08/09 02:11:45;;;;;;;2.95;1.40;;;14.90;87.20;;;;;;2065555;28;20026;-92
2021/08/09 02:13:07;;;;;;;2.42;1.00;;;14.90;87.20;;;;;;2070658;28;20034;-92
2021/08/09 02:14:10;;;;;;;3.10;1.20;;;14.90;87.10;;;;;;2069706;28;20045;-90
2021/08/09 02:15:11;;;;;;;4.50;1.40;;;14.90;87.10;;;;;;2067704;28;20012;-93
2021/08/09 02:16:19;;;;;;;3.90;1.30;;;14.80;87.10;;;;;;2073692;28;20042;-95
2021/08/09 02:17:36;;;;;;;2.35;1.00;;;14.80;87.10;;;;;;2076628;28;20019;-93
2021/08/09 02:19:13;;;;;;;3.28;1.20;;;14.90;87.10;;;;;;2073946;28;20047;-93
2021/08/09 02:20:37;;;;;;;3.30;1.20;;;14.90;87.10;;;;;;2068010;28;20027;-91
2021/08/09 02:21:48;;;;;;;5.05;1.17;;;14.80;86.90;;;;;;2069741;28;20022;-90
2021/08/09 02:22:53;;;;;;;4.18;1.40;;;14.80;86.90;;;;;;2072052;28;20105;-96
2021/08/09 02:24:19;;;;;;;3.40;1.27;;;14.80;86.90;;;;;;2073794;28;20113;-95
2021/08/09 02:25:24;;;;;;;4.75;1.25;;;14.90;86.90;;;;;;2063978;28;20042;-96
2021/08/09 02:26:50;;;;;;;3.20;1.20;;;14.90;87.00;;;;;;2059760;28;20111;-96
2021/08/09 02:27:55;;;;;;;4.30;1.08;;;14.80;86.80;;;;;;2050971;28;20034;-96
2021/08/09 02:29:03;;;;;;;4.25;1.52;;;14.80;87.00;;;;;;2071039;28;20030;-96
2021/08/09 02:30:05;;;;;;;2.75;1.13;;;14.80;86.80;;;;;;2071278;28;20039;-96
2021/08/09 02:31:08;;;;;;;4.28;1.23;;;14.80;86.80;;;;;;2060970;28;20117;-96
2021/08/09 02:32:11;;;;;;;1.88;1.00;;;14.80;86.80;;;;;;2064694;28;20045;-96
2021/08/09 02:33:12;;;;;;;2.15;1.10;;;14.80;86.80;;;;;;2068957;28;20022;-96
2021/08/09 02:34:15;;;;;;;5.50;1.55;;;14.80;86.90;;;;;;2060091;28;20592;-96
2021/08/09 02:35:20;;;;;;;3.70;1.20;;;14.90;87.00;;;;;;2060084;28;20042;-96
2021/08/09 02:36:21;;;;;;;4.53;1.40;;;14.90;87.00;;;;;;2059994;28;20035;-96
2021/08/09 02:37:25;;;;;;;3.25;1.10;;;14.90;87.00;;;;;;2058796;28;20035;-96
2021/08/09 02:38:27;;;;;;;4.30;1.17;;;14.90;86.90;;;;;;2059497;28;20716;-96
2021/08/09 02:39:31;;;;;;;3.17;1.30;;;14.80;86.90;;;;;;2058973;28;20039;-96
2021/08/09 02:40:33;;;;;;;4.07;1.20;;;14.90;86.90;;;;;;2052164;28;20039;-96
2021/08/09 02:41:35;;;;;;;3.55;1.55;;;14.90;86.90;;;;;;2066714;28;20042;-96
2021/08/09 02:42:36;;;;;;;4.40;1.50;;;14.90;86.90;;;;;;2075372;28;20038;-96
2021/08/09 02:43:38;;;;;;;3.30;1.30;;;14.90;86.90;;;;;;2059571;28;20034;-96
2021/08/09 02:44:40;;;;;;;3.92;1.23;;;14.90;86.80;;;;;;2051580;29;20054;-96
2021/08/09 02:45:42;;;;;;;2.47;1.13;;;14.90;86.90;;;;;;2043259;28;20048;-96
2021/08/09 02:46:45;;;;;;;3.47;1.30;;;14.90;86.90;;;;;;2051605;28;20038;-95
2021/08/09 02:47:47;;;;;;;4.32;1.30;;;14.90;86.90;;;;;;2059633;28;20126;-96
2021/08/09 02:48:48;;;;;;;4.18;1.23;;;14.90;86.90;;;;;;2059465;28;20103;-96
2021/08/09 02:49:51;;;;;;;3.72;1.00;;;14.90;86.90;;;;;;2059443;28;20046;-96
2021/08/09 02:50:54;;;;;;;4.07;1.50;;;14.90;86.90;;;;;;2067767;28;20732;-96
2021/08/09 02:51:55;;;;;;;3.25;1.17;;;14.90;86.90;;;;;;2051612;29;20051;-96
2021/08/09 02:52:57;;;;;;;3.63;1.20;;;14.90;86.90;;;;;;2049953;28;20404;-96
2021/08/09 02:54:00;;;;;;;4.32;1.17;;;14.90;87.00;;;;;;2057917;28;20546;-96
2021/08/09 02:55:01;;;;;;;3.20;1.30;;;14.90;86.90;;;;;;2051379;28;20051;-95
2021/08/09 02:56:02;;;;;;;3.67;1.30;;;14.90;87.00;;;;;;2061182;28;20069;-96
2021/08/09 02:57:05;;;;;;;4.32;1.30;;;14.90;86.90;;;;;;2059173;28;20098;-96
2021/08/09 02:58:07;;;;;;;2.13;0.95;;;14.90;87.00;;;;;;2067391;28;20393;-96
2021/08/09 02:59:08;;;;;;;4.00;1.30;;;14.80;86.90;;;;;;2059027;28;20117;-96
2021/08/09 03:00:09;;;;;;;2.58;1.00;;;14.90;87.00;;;;;;2058850;28;20115;-96
2021/08/09 03:01:14;;;;;;;4.20;1.42;;;14.80;86.90;;;;;;2050540;28;20091;-96
2021/08/09 03:02:16;;;;;;;4.25;1.40;;;14.80;87.00;;;;;;2051591;28;20031;-96
2021/08/09 03:03:28;;;;;;;5.70;1.40;;;14.80;87.00;;;;;;2070137;28;20089;-96
2021/08/09 03:04:30;;;;;;;3.10;1.30;;;14.80;87.00;;;;;;2063779;28;20045;-96
2021/08/09 03:05:32;;;;;;;5.18;1.20;;;14.80;87.00;;;;;;2058587;28;20031;-96
2021/08/09 03:06:34;;;;;;;3.42;1.20;;;14.80;87.10;;;;;;2056196;28;20045;-96
2021/08/09 03:07:36;;;;;;;4.10;1.20;;;14.80;87.20;;;;;;2060309;28;20110;-96
2021/08/09 03:08:39;;;;;;;5.78;1.67;;;14.80;87.60;;;;;;2060085;28;20041;-96
2021/08/09 03:09:40;;;;;;;3.25;1.13;;;14.80;87.20;;;;;;2062978;28;20038;-96
2021/08/09 03:10:41;;;;;;;2.67;1.00;;;14.80;87.20;;;;;;2060903;28;20405;-96
2021/08/09 03:11:42;;;;;;;5.25;1.35;;;14.70;87.20;;;;;;2055835;28;20089;-96
2021/08/09 03:12:43;;;;;;;2.45;1.05;;;14.80;87.20;;;;;;2042760;28;20040;-96
2021/08/09 03:13:49;;;;;;;3.95;1.27;;;14.80;87.30;;;;;;2050838;29;20087;-96
2021/08/09 03:14:51;;;;;;;4.00;1.27;;;14.80;87.30;;;;;;2051493;28;20036;-96
2021/08/09 03:15:52;;;;;;;2.80;1.17;;;14.80;87.30;;;;;;2056142;28;20568;-96
2021/08/09 03:16:53;;;;;;;3.17;1.23;;;14.80;87.30;;;;;;2050939;28;20503;-96
2021/08/09 03:17:54;;;;;;;3.72;1.42;;;14.80;87.30;;;;;;2050852;29;20548;-96
2021/08/09 03:18:55;;;;;;;3.25;1.10;;;14.80;87.30;;;;;;2050367;29;20032;-96
2021/08/09 03:19:57;;;;;;;3.60;1.27;;;14.80;87.20;;;;;;2043229;28;20130;-96
2021/08/09 03:20:58;;;;;;;2.22;1.10;;;14.80;87.30;;;;;;2040463;29;20063;-96
2021/08/09 03:22:00;;;;;;;3.10;1.08;;;14.70;87.20;;;;;;2050827;28;20059;-96
2021/08/09 03:23:02;;;;;;;3.58;1.10;;;14.70;87.20;;;;;;2059120;28;20030;-96
2021/08/09 03:24:03;;;;;;;3.90;1.20;;;14.80;87.20;;;;;;2064461;28;20027;-94
2021/08/09 03:25:04;;;;;;;3.40;1.27;;;14.80;87.20;;;;;;2060269;28;20067;-93
2021/08/09 03:26:05;;;;;;;3.28;1.27;;;14.80;87.20;;;;;;2065984;28;20027;-96
2021/08/09 03:27:06;;;;;;;5.43;1.20;;;14.80;87.20;;;;;;2059987;28;20035;-91
2021/08/09 03:28:07;;;;;;;3.78;1.33;;;14.80;87.20;;;;;;2071378;28;20010;-93
2021/08/09 03:29:10;;;;;;;3.38;1.20;;;14.80;87.20;;;;;;2075694;28;20027;-91
2021/08/09 03:30:10;;;;;;;4.25;1.17;;;14.80;87.30;;;;;;2067693;28;20026;-95
2021/08/09 03:31:12;;;;;;;2.80;1.05;;;14.80;87.30;;;;;;2053296;28;20015;-95
2021/08/09 03:32:13;;;;;;;3.67;1.17;;;14.80;87.20;;;;;;2075138;28;20046;-93
2021/08/09 03:33:14;;;;;;;2.92;1.20;;;14.80;87.20;;;;;;2074542;28;20031;-91
2021/08/09 03:34:15;;;;;;;2.15;1.00;;;14.80;87.20;;;;;;2058284;28;20035;-96
2021/08/09 03:35:16;;;;;;;3.58;1.10;;;14.80;87.20;;;;;;2052810;28;20035;-92
2021/08/09 03:36:17;;;;;;;3.33;1.00;;;14.80;87.20;;;;;;2067561;28;20023;-92
2021/08/09 03:37:18;;;;;;;4.80;1.20;;;14.80;87.20;;;;;;2052501;29;20028;-93
2021/08/09 03:38:18;;;;;;;3.55;1.10;;;14.80;87.20;;;;;;2052430;28;20028;-89
2021/08/09 03:39:20;;;;;;;2.83;1.00;;;14.80;87.10;;;;;;2054792;28;20054;-94
2021/08/09 03:40:21;;;;;;;3.78;1.10;;;14.90;87.20;;;;;;2052785;28;20038;-96
2021/08/09 03:41:22;;;;;;;3.75;1.20;;;14.80;87.10;;;;;;2053498;28;20098;-96
2021/08/09 03:42:23;;;;;;;4.47;1.00;;;14.80;87.00;;;;;;2050875;28;20087;-96
2021/08/09 03:43:23;;;;;;;3.75;1.10;;;14.80;87.10;;;;;;2057497;28;20073;-96
2021/08/09 03:44:24;;;;;;;3.55;1.20;;;14.80;87.70;;;;;;2058481;28;20034;-96
2021/08/09 03:45:25;;;;;;;3.53;1.10;;;14.80;87.10;;;;;;2043268;29;20047;-96
2021/08/09 03:46:25;;;;;;;2.35;0.90;;;14.90;87.20;;;;;;2058688;28;20034;-96
2021/08/09 03:47:26;;;;;;;4.05;1.45;;;14.80;87.10;;;;;;2065224;28;20085;-96
2021/08/09 03:48:27;;;;;;;2.15;1.17;;;14.80;87.10;;;;;;2064388;28;20098;-96
2021/08/09 03:49:28;;;;;;;3.90;1.10;;;14.90;87.20;;;;;;2042411;29;20128;-96
2021/08/09 03:50:28;;;;;;;4.65;1.30;;;14.80;87.10;;;;;;2040094;29;20062;-96
2021/08/09 03:51:29;;;;;;;3.80;1.00;;;14.80;87.20;;;;;;2061465;28;20118;-96
2021/08/09 03:52:30;;;;;;;2.85;1.20;;;14.80;87.20;;;;;;2062912;28;20071;-96
2021/08/09 03:53:30;;;;;;;3.38;1.17;;;14.80;87.20;;;;;;2056343;28;20043;-92
2021/08/09 03:54:31;;;;;;;2.42;1.00;;;14.80;87.20;;;;;;2059061;28;20026;-95
2021/08/09 03:55:32;;;;;;;2.58;1.00;;;14.80;87.20;;;;;;2052328;28;20024;-96
2021/08/09 03:56:34;;;;;;;3.17;1.30;;;14.80;87.20;;;;;;2053048;28;20031;-94
2021/08/09 03:57:35;;;;;;;3.15;1.30;;;14.80;87.20;;;;;;2052633;28;20035;-96
2021/08/09 03:58:36;;;;;;;3.92;0.98;;;14.80;87.20;;;;;;2067369;28;20233;-95
2021/08/09 03:59:36;;;;;;;3.80;1.30;;;14.80;87.20;;;;;;2051731;28;20095;-95
2021/08/09 04:00:38;;;;;;;3.78;1.20;;;14.80;87.30;;;;;;2046317;29;20047;-96
2021/08/09 04:01:39;;;;;;;2.60;1.13;;;14.80;87.30;;;;;;2053885;28;20110;-96
2021/08/09 04:02:41;;;;;;;2.47;1.20;;;14.80;87.30;;;;;;2051693;28;20058;-96
2021/08/09 04:03:42;;;;;;;3.20;1.20;;;14.80;87.30;;;;;;2052078;28;20031;-96
2021/08/09 04:04:43;;;;;;;3.25;1.00;;;14.80;87.40;;;;;;2056387;28;20131;-96
2021/08/09 04:05:43;;;;;;;2.85;1.00;;;14.80;87.30;;;;;;2057891;28;20122;-96
2021/08/09 04:06:44;;;;;;;4.00;1.10;;;14.80;87.30;;;;;;2049978;28;20047;-96
2021/08/09 04:07:45;;;;;;;3.60;1.20;;;14.80;87.60;;;;;;2048511;28;20125;-96
2021/08/09 04:08:48;;;;;;;3.67;1.30;;;14.80;87.30;;;;;;2048149;29;20039;-96
2021/08/09 04:09:48;;;;;;;3.25;1.13;;;14.80;87.30;;;;;;2044515;28;20040;-96
2021/08/09 04:10:49;;;;;;;4.28;1.10;;;14.80;87.30;;;;;;2058414;28;20038;-96
2021/08/09 04:11:50;;;;;;;4.78;1.30;;;14.80;87.30;;;;;;2050764;28;20138;-96
2021/08/09 04:12:51;;;;;;;3.50;1.15;;;14.80;87.30;;;;;;2038611;29;20044;-96
2021/08/09 04:13:51;;;;;;;4.55;1.02;;;14.80;87.20;;;;;;2052595;28;20036;-96
2021/08/09 04:14:52;;;;;;;2.72;1.10;;;14.80;87.20;;;;;;2058496;28;20043;-96
2021/08/09 04:15:53;;;;;;;3.08;1.20;;;14.80;87.30;;;;;;2061548;28;20035;-96
2021/08/09 04:16:54;;;;;;;4.18;1.20;;;14.80;87.20;;;;;;2064746;28;20132;-96
2021/08/09 04:17:54;;;;;;;2.80;1.20;;;14.80;87.20;;;;;;2052355;28;20146;-95
2021/08/09 04:18:55;;;;;;;4.13;1.25;;;14.80;87.20;;;;;;2062227;28;20110;-95
2021/08/09 04:19:57;;;;;;;2.78;1.10;;;14.80;87.30;;;;;;2065777;28;20109;-96
2021/08/09 04:20:58;;;;;;;3.53;1.20;;;14.80;87.30;;;;;;2055014;28;20024;-96
2021/08/09 04:21:59;;;;;;;2.85;1.08;;;14.80;88.00;;;;;;2063499;28;20060;-96
2021/08/09 04:23:00;;;;;;;3.17;1.30;;;14.80;87.40;;;;;;2050612;29;20035;-96
2021/08/09 04:24:00;;;;;;;3.67;1.10;;;14.80;87.40;;;;;;2046524;28;20078;-96
2021/08/09 04:25:02;;;;;;;3.13;1.20;;;14.80;87.40;;;;;;2054544;28;20035;-94
2021/08/09 04:26:02;;;;;;;2.67;1.27;;;14.80;87.40;;;;;;2058273;28;20063;-95
2021/08/09 04:27:03;;;;;;;2.25;1.02;;;14.70;87.40;;;;;;2049849;28;20124;-93
2021/08/09 04:28:04;;;;;;;3.22;1.20;;;14.70;87.40;;;;;;2058545;28;20054;-95
2021/08/09 04:29:05;;;;;;;3.63;1.20;;;14.80;87.40;;;;;;2053852;28;20050;-94
2021/08/09 04:30:06;;;;;;;2.92;1.20;;;14.70;87.40;;;;;;2051803;28;20094;-94
2021/08/09 04:31:07;;;;;;;3.58;1.23;;;14.70;87.40;;;;;;2039420;28;20126;-96
2021/08/09 04:32:15;;;;;;;2.67;1.17;;;14.70;87.50;;;;;;2050059;28;20122;-94
2021/08/09 04:33:16;;;;;;;3.85;1.30;;;14.70;87.50;;;;;;2058682;28;20045;-95
2021/08/09 04:34:16;;;;;;;2.63;1.08;;;14.70;87.50;;;;;;2057595;28;20477;-94
2021/08/09 04:35:17;;;;;;;4.07;1.20;;;14.70;87.40;;;;;;2064431;28;20045;-94
2021/08/09 04:36:18;;;;;;;4.75;1.13;;;14.70;87.40;;;;;;2054087;28;20046;-96
2021/08/09 04:37:20;;;;;;;2.65;1.30;;;14.80;87.40;;;;;;2053133;28;20039;-96
2021/08/09 04:38:20;;;;;;;2.88;0.90;;;14.80;87.40;;;;;;2050250;28;20032;-93
2021/08/09 04:39:21;;;;;;;2.03;1.15;;;14.70;87.30;;;;;;2057332;28;20042;-93
2021/08/09 04:40:22;;;;;;;4.05;1.17;;;14.80;87.30;;;;;;2057414;28;20144;-95
2021/08/09 04:41:23;;;;;;;4.20;1.30;;;14.70;87.30;;;;;;2063546;28;20034;-95
2021/08/09 04:42:25;;;;;;;4.82;1.35;;;14.70;87.30;;;;;;2058949;28;20042;-96
2021/08/09 04:43:26;;;;;;;3.85;1.35;;;14.70;87.30;;;;;;2048459;28;20040;-96
2021/08/09 04:44:27;;;;;;;3.50;1.13;;;14.80;87.30;;;;;;2049785;29;20406;-95
2021/08/09 04:45:27;;;;;;;4.18;1.30;;;14.80;87.30;;;;;;2051258;28;20063;-95
2021/08/09 04:46:28;;;;;;;2.20;1.10;;;14.80;87.30;;;;;;2051152;28;20091;-96
2021/08/09 04:47:29;;;;;;;3.22;1.23;;;14.80;87.30;;;;;;2060117;28;20041;-96
2021/08/09 04:48:32;;;;;;;3.60;1.35;;;14.80;87.30;;;;;;2060437;28;20034;-96
2021/08/09 04:49:32;;;;;;;2.75;0.95;;;14.80;87.20;;;;;;2061859;28;20503;-94
2021/08/09 04:50:33;;;;;;;2.83;1.10;;;14.80;87.20;;;;;;2054567;28;20035;-96
2021/08/09 04:51:35;;;;;;;4.13;1.20;;;14.80;87.20;;;;;;2061479;28;20031;-96
2021/08/09 04:52:40;;;;;;;4.53;1.45;;;14.80;87.20;;;;;;2052202;28;20504;-96
2021/08/09 04:53:42;;;;;;;2.30;1.30;;;14.80;87.20;;;;;;2047437;28;20032;-95
2021/08/09 04:54:45;;;;;;;3.20;1.30;;;14.90;87.20;;;;;;2060165;28;20027;-96
2021/08/09 04:55:46;;;;;;;3.30;1.30;;;14.90;87.20;;;;;;2058571;28;20045;-96
2021/08/09 04:56:47;;;;;;;2.83;1.00;;;14.90;87.10;;;;;;2062326;28;20035;-89
2021/08/09 04:57:47;;;;;;;4.20;1.23;;;14.90;87.10;;;;;;2050222;29;20031;-92
2021/08/09 04:58:48;;;;;;;5.07;1.10;;;14.90;87.00;;;;;;2047646;28;20043;-93
2021/08/09 04:59:49;;;;;;;5.15;1.10;;;14.90;87.00;;;;;;2047833;28;20115;-95
2021/08/09 05:00:51;;;;;;;5.65;1.52;;;14.90;87.00;;;;;;2057618;28;20118;-95
2021/08/09 05:01:52;;;;;;;3.20;1.17;;;14.90;86.90;;;;;;2049123;28;20081;-95
2021/08/09 05:02:52;;;;;;;3.35;1.10;;;15.00;86.90;;;;;;2060054;28;20115;-95
2021/08/09 05:03:53;;;;;;;4.63;1.00;;;15.00;86.80;;;;;;2054807;28;20039;-96
2021/08/09 05:04:54;;;;;;;3.58;1.05;;;15.00;86.80;;;;;;2048825;28;20046;-95
2021/08/09 05:05:54;;;;;;;2.72;0.90;;;15.00;86.70;;;;;;2061198;28;20069;-95
2021/08/09 05:06:55;;;;;;;2.38;1.05;;;15.10;86.70;;;;;;2049188;28;20053;-94
2021/08/09 05:07:56;;;;;;;2.85;1.13;;;15.10;86.70;;;;;;2048391;29;20070;-95
2021/08/09 05:08:58;;;;;;;3.33;1.40;;;15.10;86.60;;;;;;2043834;28;20028;-96
2021/08/09 05:09:59;;;;;;;4.60;1.30;;;15.10;86.60;;;;;;2057999;28;20147;-96
2021/08/09 05:10:59;;;;;;;2.15;0.90;;;15.10;86.60;;;;;;2049042;29;20560;-95
2021/08/09 05:12:00;;;;;;;2.30;1.20;;;15.10;86.50;;;;;;2041532;29;20051;-95
2021/08/09 05:13:01;;;;;;;4.10;1.30;;;15.20;86.50;;;;;;2057612;28;20041;-95
2021/08/09 05:14:02;;;;;;;4.25;1.33;;;15.20;86.50;;;;;;2049725;28;20133;-94
2021/08/09 05:15:04;;;;;;;4.93;1.20;;;15.20;86.50;;;;;;2057640;28;20107;-95
2021/08/09 05:16:05;;;;;;;6.50;1.17;;;15.20;86.40;;;;;;2048938;28;20058;-95
2021/08/09 05:17:06;;;;;;;8.25;1.50;;;15.20;86.40;;;;;;2041474;29;20552;-95
2021/08/09 05:18:10;;;;;;;3.75;1.27;;;15.20;86.40;;;;;;2049656;28;20043;-95
2021/08/09 05:19:11;;;;;;;4.55;1.23;;;15.20;86.40;;;;;;2050339;28;20123;-95
2021/08/09 05:20:12;;;;;;;4.10;1.48;;;15.20;86.30;;;;;;2057447;28;20121;-95
2021/08/09 05:21:16;;;;;;;5.22;1.30;;;15.30;86.40;;;;;;2050817;28;20540;-94
2021/08/09 05:22:17;;;;;;;2.90;0.98;;;15.30;86.40;;;;;;2056284;28;20138;-95
2021/08/09 05:23:17;;;;;;;3.95;1.23;;;15.30;86.40;;;;;;2056702;28;20155;-95
2021/08/09 05:24:18;;;;;;;2.55;1.10;;;15.30;86.40;;;;;;2057689;28;20046;-95
2021/08/09 05:25:21;;;;;;;3.15;1.23;;;15.30;86.40;;;;;;2057040;28;20034;-95
2021/08/09 05:26:22;;;;;;;4.38;1.02;;;15.30;86.40;;;;;;2066712;28;20031;-95
2021/08/09 05:27:23;;;;;;;3.90;1.05;;;15.30;87.00;;;;;;2047276;29;20042;-95